sensor_id;sensor_type;location;lat;lon;timestamp;P1;durP1;ratioP1;P2;durP2;ratioP2
60722;SDS011;46574;52.818;6.516;2024-03-08T00:00:40;30.05;;;20.08;;
60722;SDS011;46574;52.818;6.516;2024-03-08T00:03:08;29.05;;;19.08;;
60722;SDS011;46574;52.818;6.516;2024-03-08T00:05:35;29.17;;;19.42;;
60722;SDS011;46574;52.818;6.516;2024-03-08T00:08:04;28.95;;;18.33;;
60722;SDS011;46574;52.818;6.516;2024-03-08T00:10:31;30.20;;;20.17;;
60722;SDS011;46574;52.818;6.516;2024-03-08T00:12:57;28.92;;;19.58;;
60722;SDS011;46574;52.818;6.516;2024-03-08T00:15:22;29.95;;;21.02;;
60722;SDS011;46574;52.818;6.516;2024-03-08T00:17:48;30.73;;;18.90;;
60722;SDS011;46574;52.818;6.516;2024-03-08T00:20:14;32.85;;;20.27;;
60722;SDS011;46574;52.818;6.516;2024-03-08T00:22:43;35.60;;;20.98;;
60722;SDS011;46574;52.818;6.516;2024-03-08T00:25:09;28.27;;;18.55;;
60722;SDS011;46574;52.818;6.516;2024-03-08T00:27:35;36.90;;;21.13;;
60722;SDS011;46574;52.818;6.516;2024-03-08T00:30:01;32.95;;;21.45;;
60722;SDS011;46574;52.818;6.516;2024-03-08T00:32:27;33.42;;;21.95;;
60722;SDS011;46574;52.818;6.516;2024-03-08T00:34:53;33.58;;;21.00;;
60722;SDS011;46574;52.818;6.516;2024-03-08T00:37:19;32.00;;;21.80;;
60722;SDS011;46574;52.818;6.516;2024-03-08T00:39:49;33.10;;;20.67;;
60722;SDS011;46574;52.818;6.516;2024-03-08T00:42:16;34.25;;;20.95;;
60722;SDS011;46574;52.818;6.516;2024-03-08T00:44:42;28.58;;;19.75;;
60722;SDS011;46574;52.818;6.516;2024-03-08T00:47:08;32.30;;;20.60;;
60722;SDS011;46574;52.818;6.516;2024-03-08T00:49:34;32.05;;;20.63;;
60722;SDS011;46574;52.818;6.516;2024-03-08T00:52:01;32.25;;;22.00;;
60722;SDS011;46574;52.818;6.516;2024-03-08T00:54:27;32.10;;;20.38;;
60722;SDS011;46574;52.818;6.516;2024-03-08T00:56:53;32.72;;;21.42;;
60722;SDS011;46574;52.818;6.516;2024-03-08T00:59:18;34.25;;;22.42;;
60722;SDS011;46574;52.818;6.516;2024-03-08T01:01:45;33.90;;;21.95;;
60722;SDS011;46574;52.818;6.516;2024-03-08T01:04:10;31.33;;;21.63;;
60722;SDS011;46574;52.818;6.516;2024-03-08T01:06:36;31.23;;;20.95;;
60722;SDS011;46574;52.818;6.516;2024-03-08T01:09:02;35.40;;;21.80;;
60722;SDS011;46574;52.818;6.516;2024-03-08T01:11:28;35.28;;;21.58;;
60722;SDS011;46574;52.818;6.516;2024-03-08T01:13:54;32.17;;;21.90;;
60722;SDS011;46574;52.818;6.516;2024-03-08T01:16:19;36.72;;;24.40;;
60722;SDS011;46574;52.818;6.516;2024-03-08T01:18:46;36.67;;;23.17;;
60722;SDS011;46574;52.818;6.516;2024-03-08T01:21:12;38.78;;;23.55;;
60722;SDS011;46574;52.818;6.516;2024-03-08T01:23:38;37.67;;;23.08;;
60722;SDS011;46574;52.818;6.516;2024-03-08T01:26:04;34.53;;;22.38;;
60722;SDS011;46574;52.818;6.516;2024-03-08T01:28:30;39.13;;;24.63;;
60722;SDS011;46574;52.818;6.516;2024-03-08T01:30:55;37.03;;;23.17;;
60722;SDS011;46574;52.818;6.516;2024-03-08T01:33:22;35.95;;;21.80;;
60722;SDS011;46574;52.818;6.516;2024-03-08T01:35:50;38.53;;;23.52;;
60722;SDS011;46574;52.818;6.516;2024-03-08T01:38:19;36.03;;;24.00;;
60722;SDS011;46574;52.818;6.516;2024-03-08T01:40:46;35.10;;;22.33;;
60722;SDS011;46574;52.818;6.516;2024-03-08T01:46:07;34.97;;;22.65;;
60722;SDS011;46574;52.818;6.516;2024-03-08T01:48:34;31.98;;;22.75;;
60722;SDS011;46574;52.818;6.516;2024-03-08T01:51:00;35.08;;;23.48;;
60722;SDS011;46574;52.818;6.516;2024-03-08T01:53:29;32.35;;;21.75;;
60722;SDS011;46574;52.818;6.516;2024-03-08T01:55:56;34.03;;;23.55;;
60722;SDS011;46574;52.818;6.516;2024-03-08T01:58:22;34.65;;;22.02;;
60722;SDS011;46574;52.818;6.516;2024-03-08T02:00:48;32.92;;;23.05;;
60722;SDS011;46574;52.818;6.516;2024-03-08T02:03:17;38.22;;;24.30;;
60722;SDS011;46574;52.818;6.516;2024-03-08T02:05:44;35.00;;;22.67;;
60722;SDS011;46574;52.818;6.516;2024-03-08T02:08:09;37.45;;;23.85;;
60722;SDS011;46574;52.818;6.516;2024-03-08T02:10:40;32.63;;;22.80;;
60722;SDS011;46574;52.818;6.516;2024-03-08T02:13:07;36.03;;;23.80;;
60722;SDS011;46574;52.818;6.516;2024-03-08T02:18:27;34.58;;;22.40;;
60722;SDS011;46574;52.818;6.516;2024-03-08T02:21:00;37.45;;;22.92;;
60722;SDS011;46574;52.818;6.516;2024-03-08T02:23:29;37.13;;;25.02;;
60722;SDS011;46574;52.818;6.516;2024-03-08T02:25:56;37.22;;;24.52;;
60722;SDS011;46574;52.818;6.516;2024-03-08T02:28:22;36.45;;;24.17;;
60722;SDS011;46574;52.818;6.516;2024-03-08T02:30:50;36.50;;;24.33;;
60722;SDS011;46574;52.818;6.516;2024-03-08T02:33:19;38.45;;;23.35;;
60722;SDS011;46574;52.818;6.516;2024-03-08T02:35:45;34.72;;;23.45;;
60722;SDS011;46574;52.818;6.516;2024-03-08T02:38:15;35.08;;;23.20;;
60722;SDS011;46574;52.818;6.516;2024-03-08T02:40:45;36.83;;;24.55;;
60722;SDS011;46574;52.818;6.516;2024-03-08T02:43:12;36.88;;;23.58;;
60722;SDS011;46574;52.818;6.516;2024-03-08T02:45:39;33.10;;;21.85;;
60722;SDS011;46574;52.818;6.516;2024-03-08T02:48:07;39.30;;;25.13;;
60722;SDS011;46574;52.818;6.516;2024-03-08T02:50:33;34.22;;;23.65;;
60722;SDS011;46574;52.818;6.516;2024-03-08T02:53:00;34.20;;;22.60;;
60722;SDS011;46574;52.818;6.516;2024-03-08T02:55:26;34.95;;;24.50;;
60722;SDS011;46574;52.818;6.516;2024-03-08T02:57:52;35.22;;;22.80;;
60722;SDS011;46574;52.818;6.516;2024-03-08T03:00:19;38.42;;;24.27;;
60722;SDS011;46574;52.818;6.516;2024-03-08T03:02:46;35.45;;;24.17;;
60722;SDS011;46574;52.818;6.516;2024-03-08T03:05:12;37.60;;;26.00;;
60722;SDS011;46574;52.818;6.516;2024-03-08T03:07:39;38.65;;;25.55;;
60722;SDS011;46574;52.818;6.516;2024-03-08T03:10:04;40.20;;;24.20;;
60722;SDS011;46574;52.818;6.516;2024-03-08T03:12:32;37.40;;;24.58;;
60722;SDS011;46574;52.818;6.516;2024-03-08T03:14:59;34.83;;;23.38;;
60722;SDS011;46574;52.818;6.516;2024-03-08T03:17:25;34.88;;;24.23;;
60722;SDS011;46574;52.818;6.516;2024-03-08T03:19:51;36.05;;;23.73;;
60722;SDS011;46574;52.818;6.516;2024-03-08T03:22:17;32.53;;;22.05;;
60722;SDS011;46574;52.818;6.516;2024-03-08T03:24:47;38.40;;;24.52;;
60722;SDS011;46574;52.818;6.516;2024-03-08T03:27:13;37.78;;;24.48;;
60722;SDS011;46574;52.818;6.516;2024-03-08T03:29:40;35.53;;;24.77;;
60722;SDS011;46574;52.818;6.516;2024-03-08T03:32:13;32.13;;;22.85;;
60722;SDS011;46574;52.818;6.516;2024-03-08T03:34:40;36.28;;;24.45;;
60722;SDS011;46574;52.818;6.516;2024-03-08T03:37:07;38.28;;;23.85;;
60722;SDS011;46574;52.818;6.516;2024-03-08T03:39:39;36.17;;;23.92;;
60722;SDS011;46574;52.818;6.516;2024-03-08T03:42:16;37.55;;;25.10;;
60722;SDS011;46574;52.818;6.516;2024-03-08T03:44:45;35.85;;;23.25;;
60722;SDS011;46574;52.818;6.516;2024-03-08T03:47:12;37.67;;;24.92;;
60722;SDS011;46574;52.818;6.516;2024-03-08T03:49:39;36.38;;;25.05;;
60722;SDS011;46574;52.818;6.516;2024-03-08T03:52:05;39.70;;;25.33;;
60722;SDS011;46574;52.818;6.516;2024-03-08T03:54:31;37.95;;;24.05;;
60722;SDS011;46574;52.818;6.516;2024-03-08T03:56:58;35.15;;;24.02;;
60722;SDS011;46574;52.818;6.516;2024-03-08T03:59:23;38.53;;;25.15;;
60722;SDS011;46574;52.818;6.516;2024-03-08T04:01:49;38.75;;;25.08;;
60722;SDS011;46574;52.818;6.516;2024-03-08T04:04:15;38.38;;;24.23;;
60722;SDS011;46574;52.818;6.516;2024-03-08T04:06:41;38.50;;;25.55;;
60722;SDS011;46574;52.818;6.516;2024-03-08T04:09:07;39.08;;;25.30;;
60722;SDS011;46574;52.818;6.516;2024-03-08T04:11:33;36.78;;;25.35;;
60722;SDS011;46574;52.818;6.516;2024-03-08T04:13:58;37.55;;;25.10;;
60722;SDS011;46574;52.818;6.516;2024-03-08T04:16:24;38.30;;;25.15;;
60722;SDS011;46574;52.818;6.516;2024-03-08T04:18:51;35.45;;;23.80;;
60722;SDS011;46574;52.818;6.516;2024-03-08T04:21:17;31.92;;;22.17;;
60722;SDS011;46574;52.818;6.516;2024-03-08T04:23:44;37.45;;;24.63;;
60722;SDS011;46574;52.818;6.516;2024-03-08T04:26:10;40.97;;;26.27;;
60722;SDS011;46574;52.818;6.516;2024-03-08T04:28:36;33.47;;;24.33;;
60722;SDS011;46574;52.818;6.516;2024-03-08T04:31:03;37.80;;;24.15;;
60722;SDS011;46574;52.818;6.516;2024-03-08T04:33:29;37.33;;;24.00;;
60722;SDS011;46574;52.818;6.516;2024-03-08T04:35:54;36.70;;;25.08;;
60722;SDS011;46574;52.818;6.516;2024-03-08T04:38:20;36.03;;;24.73;;
60722;SDS011;46574;52.818;6.516;2024-03-08T04:40:46;35.90;;;23.27;;
60722;SDS011;46574;52.818;6.516;2024-03-08T04:43:12;34.50;;;23.05;;
60722;SDS011;46574;52.818;6.516;2024-03-08T04:45:39;36.42;;;24.20;;
60722;SDS011;46574;52.818;6.516;2024-03-08T04:48:06;35.15;;;23.63;;
60722;SDS011;46574;52.818;6.516;2024-03-08T04:50:33;38.13;;;25.23;;
60722;SDS011;46574;52.818;6.516;2024-03-08T04:52:59;37.10;;;25.73;;
60722;SDS011;46574;52.818;6.516;2024-03-08T04:55:24;39.67;;;25.27;;
60722;SDS011;46574;52.818;6.516;2024-03-08T04:57:50;40.47;;;24.85;;
60722;SDS011;46574;52.818;6.516;2024-03-08T05:00:16;35.45;;;23.95;;
60722;SDS011;46574;52.818;6.516;2024-03-08T05:02:42;34.25;;;23.05;;
60722;SDS011;46574;52.818;6.516;2024-03-08T05:05:08;37.10;;;25.08;;
60722;SDS011;46574;52.818;6.516;2024-03-08T05:07:38;38.05;;;24.05;;
60722;SDS011;46574;52.818;6.516;2024-03-08T05:10:05;35.85;;;24.67;;
60722;SDS011;46574;52.818;6.516;2024-03-08T05:12:31;34.75;;;23.05;;
60722;SDS011;46574;52.818;6.516;2024-03-08T05:15:01;38.55;;;24.90;;
60722;SDS011;46574;52.818;6.516;2024-03-08T05:17:27;30.98;;;21.52;;
60722;SDS011;46574;52.818;6.516;2024-03-08T05:19:54;39.45;;;25.00;;
60722;SDS011;46574;52.818;6.516;2024-03-08T05:22:20;35.78;;;24.35;;
60722;SDS011;46574;52.818;6.516;2024-03-08T05:24:45;37.78;;;24.08;;
60722;SDS011;46574;52.818;6.516;2024-03-08T05:27:11;37.65;;;23.85;;
60722;SDS011;46574;52.818;6.516;2024-03-08T05:29:38;36.05;;;24.58;;
60722;SDS011;46574;52.818;6.516;2024-03-08T05:32:03;37.55;;;25.45;;
60722;SDS011;46574;52.818;6.516;2024-03-08T05:34:29;36.88;;;23.70;;
60722;SDS011;46574;52.818;6.516;2024-03-08T05:36:55;38.67;;;23.95;;
60722;SDS011;46574;52.818;6.516;2024-03-08T05:39:21;36.15;;;23.70;;
60722;SDS011;46574;52.818;6.516;2024-03-08T05:41:47;40.05;;;25.50;;
60722;SDS011;46574;52.818;6.516;2024-03-08T05:44:13;36.63;;;23.83;;
60722;SDS011;46574;52.818;6.516;2024-03-08T05:46:39;38.08;;;25.55;;
60722;SDS011;46574;52.818;6.516;2024-03-08T05:49:05;38.90;;;26.00;;
60722;SDS011;46574;52.818;6.516;2024-03-08T05:51:32;37.90;;;24.05;;
60722;SDS011;46574;52.818;6.516;2024-03-08T05:54:01;36.88;;;24.88;;
60722;SDS011;46574;52.818;6.516;2024-03-08T05:56:29;38.97;;;24.55;;
60722;SDS011;46574;52.818;6.516;2024-03-08T05:58:55;37.40;;;24.15;;
60722;SDS011;46574;52.818;6.516;2024-03-08T06:01:21;37.55;;;23.40;;
60722;SDS011;46574;52.818;6.516;2024-03-08T06:03:47;36.63;;;24.17;;
60722;SDS011;46574;52.818;6.516;2024-03-08T06:06:14;37.97;;;24.48;;
60722;SDS011;46574;52.818;6.516;2024-03-08T06:11:09;36.63;;;24.15;;
60722;SDS011;46574;52.818;6.516;2024-03-08T06:13:35;39.53;;;25.75;;
60722;SDS011;46574;52.818;6.516;2024-03-08T06:16:01;35.95;;;23.70;;
60722;SDS011;46574;52.818;6.516;2024-03-08T06:18:30;32.60;;;22.80;;
60722;SDS011;46574;52.818;6.516;2024-03-08T06:20:56;43.03;;;26.45;;
60722;SDS011;46574;52.818;6.516;2024-03-08T06:23:22;36.63;;;24.95;;
60722;SDS011;46574;52.818;6.516;2024-03-08T06:25:48;39.85;;;25.58;;
60722;SDS011;46574;52.818;6.516;2024-03-08T06:28:14;32.90;;;23.23;;
60722;SDS011;46574;52.818;6.516;2024-03-08T06:30:40;34.45;;;23.10;;
60722;SDS011;46574;52.818;6.516;2024-03-08T06:33:05;36.58;;;23.58;;
60722;SDS011;46574;52.818;6.516;2024-03-08T06:35:32;39.25;;;25.17;;
60722;SDS011;46574;52.818;6.516;2024-03-08T06:37:58;35.17;;;23.10;;
60722;SDS011;46574;52.818;6.516;2024-03-08T06:40:24;35.28;;;22.90;;
60722;SDS011;46574;52.818;6.516;2024-03-08T06:42:49;38.15;;;24.95;;
60722;SDS011;46574;52.818;6.516;2024-03-08T06:45:17;41.85;;;26.50;;
60722;SDS011;46574;52.818;6.516;2024-03-08T06:47:46;39.60;;;25.85;;
60722;SDS011;46574;52.818;6.516;2024-03-08T06:50:12;40.08;;;25.73;;
60722;SDS011;46574;52.818;6.516;2024-03-08T06:52:38;42.80;;;26.42;;
60722;SDS011;46574;52.818;6.516;2024-03-08T06:55:05;41.25;;;26.08;;
60722;SDS011;46574;52.818;6.516;2024-03-08T06:57:31;38.08;;;25.35;;
60722;SDS011;46574;52.818;6.516;2024-03-08T06:59:57;40.70;;;25.23;;
60722;SDS011;46574;52.818;6.516;2024-03-08T07:02:23;38.25;;;24.88;;
60722;SDS011;46574;52.818;6.516;2024-03-08T07:04:51;40.53;;;26.70;;
60722;SDS011;46574;52.818;6.516;2024-03-08T07:07:18;42.92;;;26.40;;
60722;SDS011;46574;52.818;6.516;2024-03-08T07:09:45;44.00;;;26.92;;
60722;SDS011;46574;52.818;6.516;2024-03-08T07:12:11;39.65;;;24.90;;
60722;SDS011;46574;52.818;6.516;2024-03-08T07:14:38;39.05;;;25.38;;
60722;SDS011;46574;52.818;6.516;2024-03-08T07:17:06;42.55;;;27.38;;
60722;SDS011;46574;52.818;6.516;2024-03-08T07:19:34;43.15;;;27.38;;
60722;SDS011;46574;52.818;6.516;2024-03-08T07:22:00;40.60;;;26.35;;
60722;SDS011;46574;52.818;6.516;2024-03-08T07:24:28;38.30;;;24.73;;
60722;SDS011;46574;52.818;6.516;2024-03-08T07:27:06;43.28;;;26.73;;
60722;SDS011;46574;52.818;6.516;2024-03-08T07:29:35;41.15;;;25.88;;
60722;SDS011;46574;52.818;6.516;2024-03-08T07:34:45;39.50;;;26.15;;
60722;SDS011;46574;52.818;6.516;2024-03-08T07:37:10;36.97;;;24.58;;
60722;SDS011;46574;52.818;6.516;2024-03-08T07:39:37;44.22;;;27.05;;
60722;SDS011;46574;52.818;6.516;2024-03-08T07:42:04;42.80;;;26.98;;
60722;SDS011;46574;52.818;6.516;2024-03-08T07:44:30;38.85;;;26.00;;
60722;SDS011;46574;52.818;6.516;2024-03-08T07:46:57;38.35;;;25.27;;
60722;SDS011;46574;52.818;6.516;2024-03-08T07:49:23;42.28;;;27.67;;
60722;SDS011;46574;52.818;6.516;2024-03-08T07:51:49;41.03;;;27.13;;
60722;SDS011;46574;52.818;6.516;2024-03-08T07:54:15;37.78;;;25.80;;
60722;SDS011;46574;52.818;6.516;2024-03-08T07:56:40;40.72;;;26.00;;
60722;SDS011;46574;52.818;6.516;2024-03-08T07:59:07;41.70;;;26.63;;
60722;SDS011;46574;52.818;6.516;2024-03-08T08:01:33;39.28;;;26.35;;
60722;SDS011;46574;52.818;6.516;2024-03-08T08:03:59;39.42;;;26.40;;
60722;SDS011;46574;52.818;6.516;2024-03-08T08:06:26;38.40;;;25.55;;
60722;SDS011;46574;52.818;6.516;2024-03-08T08:08:52;39.35;;;25.95;;
60722;SDS011;46574;52.818;6.516;2024-03-08T08:11:18;40.35;;;26.48;;
60722;SDS011;46574;52.818;6.516;2024-03-08T08:13:45;37.20;;;25.33;;
60722;SDS011;46574;52.818;6.516;2024-03-08T08:16:11;39.90;;;25.85;;
60722;SDS011;46574;52.818;6.516;2024-03-08T08:18:38;35.55;;;23.75;;
60722;SDS011;46574;52.818;6.516;2024-03-08T08:21:04;37.30;;;25.48;;
60722;SDS011;46574;52.818;6.516;2024-03-08T08:23:31;40.05;;;26.05;;
60722;SDS011;46574;52.818;6.516;2024-03-08T08:25:57;38.88;;;26.05;;
60722;SDS011;46574;52.818;6.516;2024-03-08T08:28:23;37.92;;;24.73;;
60722;SDS011;46574;52.818;6.516;2024-03-08T08:30:49;35.65;;;25.08;;
60722;SDS011;46574;52.818;6.516;2024-03-08T08:33:15;36.42;;;25.58;;
60722;SDS011;46574;52.818;6.516;2024-03-08T08:35:41;39.40;;;25.80;;
60722;SDS011;46574;52.818;6.516;2024-03-08T08:38:07;36.58;;;25.15;;
60722;SDS011;46574;52.818;6.516;2024-03-08T08:40:33;37.38;;;25.33;;
60722;SDS011;46574;52.818;6.516;2024-03-08T08:43:01;36.35;;;25.45;;
60722;SDS011;46574;52.818;6.516;2024-03-08T08:45:29;37.22;;;26.60;;
60722;SDS011;46574;52.818;6.516;2024-03-08T08:47:56;39.00;;;26.70;;
60722;SDS011;46574;52.818;6.516;2024-03-08T08:50:22;37.03;;;25.70;;
60722;SDS011;46574;52.818;6.516;2024-03-08T08:52:48;38.38;;;26.30;;
60722;SDS011;46574;52.818;6.516;2024-03-08T08:55:14;38.97;;;26.08;;
60722;SDS011;46574;52.818;6.516;2024-03-08T08:57:41;37.63;;;26.67;;
60722;SDS011;46574;52.818;6.516;2024-03-08T09:00:07;35.75;;;26.85;;
60722;SDS011;46574;52.818;6.516;2024-03-08T09:05:02;40.60;;;26.85;;
60722;SDS011;46574;52.818;6.516;2024-03-08T09:07:29;36.53;;;26.33;;
60722;SDS011;46574;52.818;6.516;2024-03-08T09:09:54;39.67;;;27.70;;
60722;SDS011;46574;52.818;6.516;2024-03-08T09:12:23;38.83;;;26.98;;
60722;SDS011;46574;52.818;6.516;2024-03-08T09:14:49;36.75;;;27.35;;
60722;SDS011;46574;52.818;6.516;2024-03-08T09:17:15;40.13;;;27.25;;
60722;SDS011;46574;52.818;6.516;2024-03-08T09:19:45;36.67;;;26.45;;
60722;SDS011;46574;52.818;6.516;2024-03-08T09:22:14;39.70;;;26.83;;
60722;SDS011;46574;52.818;6.516;2024-03-08T09:24:39;35.40;;;25.13;;
60722;SDS011;46574;52.818;6.516;2024-03-08T09:27:05;38.33;;;26.52;;
60722;SDS011;46574;52.818;6.516;2024-03-08T09:29:31;36.42;;;26.77;;
60722;SDS011;46574;52.818;6.516;2024-03-08T09:31:56;42.20;;;27.65;;
60722;SDS011;46574;52.818;6.516;2024-03-08T09:34:22;39.05;;;26.85;;
60722;SDS011;46574;52.818;6.516;2024-03-08T09:36:48;36.63;;;27.17;;
60722;SDS011;46574;52.818;6.516;2024-03-08T09:39:15;37.53;;;26.55;;
60722;SDS011;46574;52.818;6.516;2024-03-08T09:41:44;35.38;;;26.00;;
60722;SDS011;46574;52.818;6.516;2024-03-08T09:44:13;36.75;;;26.15;;
60722;SDS011;46574;52.818;6.516;2024-03-08T09:46:39;38.00;;;27.17;;
60722;SDS011;46574;52.818;6.516;2024-03-08T09:49:06;35.15;;;25.55;;
60722;SDS011;46574;52.818;6.516;2024-03-08T09:51:33;38.30;;;25.80;;
60722;SDS011;46574;52.818;6.516;2024-03-08T09:54:02;33.78;;;25.65;;
60722;SDS011;46574;52.818;6.516;2024-03-08T09:56:35;38.97;;;27.27;;
60722;SDS011;46574;52.818;6.516;2024-03-08T09:59:01;38.05;;;27.20;;
60722;SDS011;46574;52.818;6.516;2024-03-08T10:01:53;35.05;;;25.52;;
60722;SDS011;46574;52.818;6.516;2024-03-08T10:04:24;36.80;;;26.20;;
60722;SDS011;46574;52.818;6.516;2024-03-08T10:06:51;38.17;;;26.50;;
60722;SDS011;46574;52.818;6.516;2024-03-08T10:09:17;33.28;;;25.55;;
60722;SDS011;46574;52.818;6.516;2024-03-08T10:11:45;35.60;;;26.05;;
60722;SDS011;46574;52.818;6.516;2024-03-08T10:14:11;36.55;;;28.10;;
60722;SDS011;46574;52.818;6.516;2024-03-08T10:16:37;34.70;;;25.70;;
60722;SDS011;46574;52.818;6.516;2024-03-08T10:19:06;34.70;;;25.75;;
60722;SDS011;46574;52.818;6.516;2024-03-08T10:21:33;35.20;;;25.70;;
60722;SDS011;46574;52.818;6.516;2024-03-08T10:23:58;34.30;;;25.80;;
60722;SDS011;46574;52.818;6.516;2024-03-08T10:26:24;35.53;;;26.30;;
60722;SDS011;46574;52.818;6.516;2024-03-08T10:28:50;33.75;;;26.08;;
60722;SDS011;46574;52.818;6.516;2024-03-08T10:31:18;34.55;;;25.63;;
60722;SDS011;46574;52.818;6.516;2024-03-08T10:33:47;33.78;;;24.88;;
60722;SDS011;46574;52.818;6.516;2024-03-08T10:36:13;34.55;;;25.77;;
60722;SDS011;46574;52.818;6.516;2024-03-08T10:38:40;33.85;;;25.88;;
60722;SDS011;46574;52.818;6.516;2024-03-08T10:41:12;34.72;;;24.58;;
60722;SDS011;46574;52.818;6.516;2024-03-08T10:43:42;33.83;;;26.58;;
60722;SDS011;46574;52.818;6.516;2024-03-08T10:49:32;34.55;;;26.33;;
60722;SDS011;46574;52.818;6.516;2024-03-08T10:52:04;31.60;;;23.92;;
60722;SDS011;46574;52.818;6.516;2024-03-08T10:54:33;32.88;;;25.38;;
60722;SDS011;46574;52.818;6.516;2024-03-08T10:57:03;32.63;;;24.92;;
60722;SDS011;46574;52.818;6.516;2024-03-08T10:59:30;33.63;;;25.27;;
60722;SDS011;46574;52.818;6.516;2024-03-08T11:01:59;34.78;;;26.30;;
60722;SDS011;46574;52.818;6.516;2024-03-08T11:04:25;32.97;;;24.48;;
60722;SDS011;46574;52.818;6.516;2024-03-08T11:06:51;35.70;;;24.63;;
60722;SDS011;46574;52.818;6.516;2024-03-08T11:14:46;33.57;;;25.83;;
60722;SDS011;46574;52.818;6.516;2024-03-08T11:17:20;32.88;;;24.55;;
60722;SDS011;46574;52.818;6.516;2024-03-08T11:20:09;29.83;;;24.02;;
60722;SDS011;46574;52.818;6.516;2024-03-08T11:23:00;30.15;;;22.83;;
60722;SDS011;46574;52.818;6.516;2024-03-08T11:28:27;32.65;;;25.08;;
60722;SDS011;46574;52.818;6.516;2024-03-08T11:33:24;28.88;;;24.20;;
60722;SDS011;46574;52.818;6.516;2024-03-08T11:36:02;29.50;;;24.00;;
60722;SDS011;46574;52.818;6.516;2024-03-08T11:38:31;30.45;;;24.23;;
60722;SDS011;46574;52.818;6.516;2024-03-08T11:40:58;30.75;;;23.58;;
60722;SDS011;46574;52.818;6.516;2024-03-08T11:43:24;29.27;;;24.10;;
60722;SDS011;46574;52.818;6.516;2024-03-08T11:45:49;30.13;;;23.45;;
60722;SDS011;46574;52.818;6.516;2024-03-08T11:48:15;29.75;;;22.83;;
60722;SDS011;46574;52.818;6.516;2024-03-08T11:50:42;32.83;;;24.65;;
60722;SDS011;46574;52.818;6.516;2024-03-08T11:53:08;30.73;;;24.00;;
60722;SDS011;46574;52.818;6.516;2024-03-08T11:55:34;29.48;;;23.58;;
60722;SDS011;46574;52.818;6.516;2024-03-08T11:58:04;31.95;;;23.65;;
60722;SDS011;46574;52.818;6.516;2024-03-08T12:00:33;30.30;;;23.58;;
60722;SDS011;46574;52.818;6.516;2024-03-08T12:03:07;29.13;;;23.20;;
60722;SDS011;46574;52.818;6.516;2024-03-08T12:05:34;29.70;;;23.40;;
60722;SDS011;46574;52.818;6.516;2024-03-08T12:08:04;28.65;;;24.20;;
60722;SDS011;46574;52.818;6.516;2024-03-08T12:10:34;29.17;;;22.63;;
60722;SDS011;46574;52.818;6.516;2024-03-08T12:13:00;30.00;;;23.00;;
60722;SDS011;46574;52.818;6.516;2024-03-08T12:15:26;30.38;;;23.30;;
60722;SDS011;46574;52.818;6.516;2024-03-08T12:17:53;28.48;;;22.40;;
60722;SDS011;46574;52.818;6.516;2024-03-08T12:20:21;29.85;;;22.27;;
60722;SDS011;46574;52.818;6.516;2024-03-08T12:22:49;27.63;;;22.85;;
60722;SDS011;46574;52.818;6.516;2024-03-08T12:25:19;28.77;;;22.88;;
60722;SDS011;46574;52.818;6.516;2024-03-08T12:27:45;29.63;;;22.88;;
60722;SDS011;46574;52.818;6.516;2024-03-08T12:32:50;28.83;;;22.88;;
60722;SDS011;46574;52.818;6.516;2024-03-08T12:35:21;28.67;;;23.92;;
60722;SDS011;46574;52.818;6.516;2024-03-08T12:37:55;28.35;;;22.80;;
60722;SDS011;46574;52.818;6.516;2024-03-08T12:40:28;28.05;;;21.92;;
60722;SDS011;46574;52.818;6.516;2024-03-08T12:42:56;27.83;;;22.60;;
60722;SDS011;46574;52.818;6.516;2024-03-08T12:45:26;28.88;;;22.95;;
60722;SDS011;46574;52.818;6.516;2024-03-08T12:47:52;27.00;;;21.80;;
60722;SDS011;46574;52.818;6.516;2024-03-08T12:50:19;27.70;;;22.67;;
60722;SDS011;46574;52.818;6.516;2024-03-08T12:52:45;27.73;;;22.10;;
60722;SDS011;46574;52.818;6.516;2024-03-08T12:55:12;26.73;;;21.83;;
60722;SDS011;46574;52.818;6.516;2024-03-08T12:57:37;25.30;;;21.10;;
60722;SDS011;46574;52.818;6.516;2024-03-08T13:00:04;26.15;;;21.63;;
60722;SDS011;46574;52.818;6.516;2024-03-08T13:02:31;27.13;;;21.02;;
60722;SDS011;46574;52.818;6.516;2024-03-08T13:05:00;23.23;;;20.25;;
60722;SDS011;46574;52.818;6.516;2024-03-08T13:07:26;26.05;;;20.83;;
60722;SDS011;46574;52.818;6.516;2024-03-08T13:09:52;24.98;;;20.23;;
60722;SDS011;46574;52.818;6.516;2024-03-08T13:12:19;26.38;;;21.23;;
60722;SDS011;46574;52.818;6.516;2024-03-08T13:14:45;24.80;;;20.75;;
60722;SDS011;46574;52.818;6.516;2024-03-08T13:17:12;24.70;;;19.98;;
60722;SDS011;46574;52.818;6.516;2024-03-08T13:19:38;23.83;;;19.73;;
60722;SDS011;46574;52.818;6.516;2024-03-08T13:22:04;27.25;;;21.88;;
60722;SDS011;46574;52.818;6.516;2024-03-08T13:24:30;30.33;;;23.25;;
60722;SDS011;46574;52.818;6.516;2024-03-08T13:26:56;26.70;;;21.27;;
60722;SDS011;46574;52.818;6.516;2024-03-08T13:29:23;26.98;;;21.95;;
60722;SDS011;46574;52.818;6.516;2024-03-08T13:31:48;24.25;;;21.10;;
60722;SDS011;46574;52.818;6.516;2024-03-08T13:34:17;26.50;;;21.30;;
60722;SDS011;46574;52.818;6.516;2024-03-08T13:36:43;25.75;;;21.55;;
60722;SDS011;46574;52.818;6.516;2024-03-08T13:39:11;24.15;;;20.85;;
60722;SDS011;46574;52.818;6.516;2024-03-08T13:41:45;25.08;;;20.50;;
60722;SDS011;46574;52.818;6.516;2024-03-08T13:44:11;25.50;;;20.55;;
60722;SDS011;46574;52.818;6.516;2024-03-08T13:46:37;23.15;;;20.58;;
60722;SDS011;46574;52.818;6.516;2024-03-08T13:49:04;23.30;;;19.90;;
60722;SDS011;46574;52.818;6.516;2024-03-08T13:51:33;24.77;;;21.17;;
60722;SDS011;46574;52.818;6.516;2024-03-08T13:53:59;23.08;;;20.20;;
60722;SDS011;46574;52.818;6.516;2024-03-08T13:56:38;24.58;;;20.50;;
60722;SDS011;46574;52.818;6.516;2024-03-08T13:59:11;22.20;;;19.23;;
60722;SDS011;46574;52.818;6.516;2024-03-08T14:01:36;23.27;;;19.50;;
60722;SDS011;46574;52.818;6.516;2024-03-08T14:04:08;22.63;;;19.17;;
60722;SDS011;46574;52.818;6.516;2024-03-08T14:06:34;21.30;;;18.42;;
60722;SDS011;46574;52.818;6.516;2024-03-08T14:09:00;21.05;;;18.23;;
60722;SDS011;46574;52.818;6.516;2024-03-08T14:11:26;21.10;;;18.70;;
60722;SDS011;46574;52.818;6.516;2024-03-08T14:13:52;21.65;;;18.20;;
60722;SDS011;46574;52.818;6.516;2024-03-08T14:16:18;19.92;;;17.83;;
60722;SDS011;46574;52.818;6.516;2024-03-08T14:18:44;21.05;;;18.55;;
60722;SDS011;46574;52.818;6.516;2024-03-08T14:21:10;20.80;;;18.05;;
60722;SDS011;46574;52.818;6.516;2024-03-08T14:23:36;21.10;;;18.60;;
60722;SDS011;46574;52.818;6.516;2024-03-08T14:26:02;20.38;;;18.27;;
60722;SDS011;46574;52.818;6.516;2024-03-08T14:28:29;19.90;;;17.70;;
60722;SDS011;46574;52.818;6.516;2024-03-08T14:30:55;20.85;;;17.80;;
60722;SDS011;46574;52.818;6.516;2024-03-08T14:33:20;19.30;;;16.75;;
60722;SDS011;46574;52.818;6.516;2024-03-08T14:35:46;20.25;;;18.10;;
60722;SDS011;46574;52.818;6.516;2024-03-08T14:38:12;22.00;;;18.70;;
60722;SDS011;46574;52.818;6.516;2024-03-08T14:40:38;22.67;;;17.90;;
60722;SDS011;46574;52.818;6.516;2024-03-08T14:43:04;21.27;;;18.42;;
60722;SDS011;46574;52.818;6.516;2024-03-08T14:45:30;21.50;;;18.50;;
60722;SDS011;46574;52.818;6.516;2024-03-08T14:47:56;22.58;;;18.30;;
60722;SDS011;46574;52.818;6.516;2024-03-08T14:50:23;21.65;;;18.30;;